sensor_id;sensor_type;location;lat;lon;timestamp;temperature;humidity
71672;DHT22;62112;45.638;11.714;2022-07-29T00:00:48;30.00;43.20
71672;DHT22;62112;45.638;11.714;2022-07-29T00:03:14;30.00;43.30
71672;DHT22;62112;45.638;11.714;2022-07-29T00:05:40;29.90;43.50
71672;DHT22;62112;45.638;11.714;2022-07-29T00:08:10;29.80;43.80
71672;DHT22;62112;45.638;11.714;2022-07-29T00:10:35;29.70;44.50
71672;DHT22;62112;45.638;11.714;2022-07-29T00:13:02;29.80;44.20
71672;DHT22;62112;45.638;11.714;2022-07-29T00:15:27;29.70;44.40
71672;DHT22;62112;45.638;11.714;2022-07-29T00:17:53;29.80;44.30
71672;DHT22;62112;45.638;11.714;2022-07-29T00:20:19;29.80;44.30
71672;DHT22;62112;45.638;11.714;2022-07-29T00:22:45;29.60;44.50
71672;DHT22;62112;45.638;11.714;2022-07-29T00:25:12;29.60;44.80
71672;DHT22;62112;45.638;11.714;2022-07-29T00:27:38;29.60;44.60
71672;DHT22;62112;45.638;11.714;2022-07-29T00:30:06;29.70;44.60
71672;DHT22;62112;45.638;11.714;2022-07-29T00:32:32;29.70;44.70
71672;DHT22;62112;45.638;11.714;2022-07-29T00:34:58;29.70;45.00
71672;DHT22;62112;45.638;11.714;2022-07-29T00:37:42;29.70;45.00
71672;DHT22;62112;45.638;11.714;2022-07-29T00:40:09;29.60;45.00
71672;DHT22;62112;45.638;11.714;2022-07-29T00:42:49;29.70;45.20
71672;DHT22;62112;45.638;11.714;2022-07-29T00:45:15;29.60;45.30
71672;DHT22;62112;45.638;11.714;2022-07-29T00:47:42;29.70;45.70
71672;DHT22;62112;45.638;11.714;2022-07-29T00:50:10;29.60;45.40
71672;DHT22;62112;45.638;11.714;2022-07-29T00:52:38;29.60;45.70
71672;DHT22;62112;45.638;11.714;2022-07-29T00:55:06;29.60;45.90
71672;DHT22;62112;45.638;11.714;2022-07-29T00:57:33;29.60;45.80
71672;DHT22;62112;45.638;11.714;2022-07-29T00:59:59;29.50;46.10
71672;DHT22;62112;45.638;11.714;2022-07-29T01:02:24;29.60;46.10
71672;DHT22;62112;45.638;11.714;2022-07-29T01:04:51;29.60;46.60
71672;DHT22;62112;45.638;11.714;2022-07-29T01:07:17;29.60;46.50
71672;DHT22;62112;45.638;11.714;2022-07-29T01:09:44;29.50;46.80
71672;DHT22;62112;45.638;11.714;2022-07-29T01:12:11;29.50;46.60
71672;DHT22;62112;45.638;11.714;2022-07-29T01:14:39;29.50;46.90
71672;DHT22;62112;45.638;11.714;2022-07-29T01:17:43;29.60;46.90
71672;DHT22;62112;45.638;11.714;2022-07-29T01:23:19;29.50;47.20
71672;DHT22;62112;45.638;11.714;2022-07-29T01:25:51;29.50;47.40
71672;DHT22;62112;45.638;11.714;2022-07-29T01:29:21;29.50;47.20
71672;DHT22;62112;45.638;11.714;2022-07-29T01:31:54;29.50;47.40
71672;DHT22;62112;45.638;11.714;2022-07-29T01:34:25;29.50;47.80
71672;DHT22;62112;45.638;11.714;2022-07-29T01:39:32;29.40;48.00
71672;DHT22;62112;45.638;11.714;2022-07-29T01:45:10;29.50;47.70
71672;DHT22;62112;45.638;11.714;2022-07-29T01:50:34;29.40;47.90
71672;DHT22;62112;45.638;11.714;2022-07-29T01:53:04;29.40;48.30
71672;DHT22;62112;45.638;11.714;2022-07-29T01:55:34;29.40;48.10
71672;DHT22;62112;45.638;11.714;2022-07-29T01:58:03;29.40;48.00
71672;DHT22;62112;45.638;11.714;2022-07-29T02:00:32;29.40;47.80
71672;DHT22;62112;45.638;11.714;2022-07-29T02:03:05;29.40;47.90
71672;DHT22;62112;45.638;11.714;2022-07-29T02:05:33;29.40;48.00
71672;DHT22;62112;45.638;11.714;2022-07-29T02:08:01;29.40;48.10
71672;DHT22;62112;45.638;11.714;2022-07-29T02:10:30;29.40;48.10
71672;DHT22;62112;45.638;11.714;2022-07-29T02:12:57;29.40;48.10
71672;DHT22;62112;45.638;11.714;2022-07-29T02:15:26;29.30;48.20
71672;DHT22;62112;45.638;11.714;2022-07-29T02:18:02;29.40;48.30
71672;DHT22;62112;45.638;11.714;2022-07-29T02:20:30;29.40;48.30
71672;DHT22;62112;45.638;11.714;2022-07-29T02:22:57;29.40;48.40
71672;DHT22;62112;45.638;11.714;2022-07-29T02:25:24;29.40;48.30
71672;DHT22;62112;45.638;11.714;2022-07-29T02:27:51;29.30;48.30
71672;DHT22;62112;45.638;11.714;2022-07-29T02:30:18;29.30;48.80
71672;DHT22;62112;45.638;11.714;2022-07-29T02:32:45;29.30;48.50
71672;DHT22;62112;45.638;11.714;2022-07-29T02:35:14;29.30;48.60
71672;DHT22;62112;45.638;11.714;2022-07-29T02:37:43;29.30;48.40
71672;DHT22;62112;45.638;11.714;2022-07-29T02:40:11;29.40;48.20
71672;DHT22;62112;45.638;11.714;2022-07-29T02:42:42;29.30;47.90
71672;DHT22;62112;45.638;11.714;2022-07-29T02:45:10;29.30;48.20
71672;DHT22;62112;45.638;11.714;2022-07-29T02:47:48;29.20;48.30
71672;DHT22;62112;45.638;11.714;2022-07-29T02:50:21;29.30;48.20
71672;DHT22;62112;45.638;11.714;2022-07-29T02:55:25;29.30;48.00
71672;DHT22;62112;45.638;11.714;2022-07-29T02:57:59;29.30;48.20
71672;DHT22;62112;45.638;11.714;2022-07-29T03:00:31;29.30;48.00
71672;DHT22;62112;45.638;11.714;2022-07-29T03:03:01;29.30;48.10
71672;DHT22;62112;45.638;11.714;2022-07-29T03:05:29;29.30;48.00
71672;DHT22;62112;45.638;11.714;2022-07-29T03:08:00;29.30;48.10
71672;DHT22;62112;45.638;11.714;2022-07-29T03:10:26;29.30;48.00
71672;DHT22;62112;45.638;11.714;2022-07-29T03:12:54;29.40;48.00
71672;DHT22;62112;45.638;11.714;2022-07-29T03:15:21;29.30;48.00
71672;DHT22;62112;45.638;11.714;2022-07-29T03:17:49;29.30;48.20
71672;DHT22;62112;45.638;11.714;2022-07-29T03:20:15;29.30;48.10
71672;DHT22;62112;45.638;11.714;2022-07-29T03:22:43;29.30;48.20
71672;DHT22;62112;45.638;11.714;2022-07-29T03:25:13;29.30;47.90
71672;DHT22;62112;45.638;11.714;2022-07-29T03:27:39;29.30;48.20
71672;DHT22;62112;45.638;11.714;2022-07-29T03:30:07;29.30;47.70
71672;DHT22;62112;45.638;11.714;2022-07-29T03:32:33;29.30;47.70
71672;DHT22;62112;45.638;11.714;2022-07-29T03:34:59;29.30;47.80
71672;DHT22;62112;45.638;11.714;2022-07-29T03:37:25;29.30;47.90
71672;DHT22;62112;45.638;11.714;2022-07-29T03:39:52;29.20;47.60
71672;DHT22;62112;45.638;11.714;2022-07-29T03:42:21;29.30;48.00
71672;DHT22;62112;45.638;11.714;2022-07-29T03:44:49;29.20;48.00
71672;DHT22;62112;45.638;11.714;2022-07-29T03:47:18;29.20;48.20
71672;DHT22;62112;45.638;11.714;2022-07-29T03:49:48;29.10;48.20
71672;DHT22;62112;45.638;11.714;2022-07-29T03:52:16;29.20;47.90
71672;DHT22;62112;45.638;11.714;2022-07-29T03:54:43;29.20;48.10
71672;DHT22;62112;45.638;11.714;2022-07-29T03:57:11;29.20;47.80
71672;DHT22;62112;45.638;11.714;2022-07-29T03:59:37;29.20;48.20
71672;DHT22;62112;45.638;11.714;2022-07-29T04:02:05;29.20;48.20
71672;DHT22;62112;45.638;11.714;2022-07-29T04:04:34;29.20;48.30
71672;DHT22;62112;45.638;11.714;2022-07-29T04:07:01;29.20;48.10
71672;DHT22;62112;45.638;11.714;2022-07-29T04:09:27;29.20;48.40
71672;DHT22;62112;45.638;11.714;2022-07-29T04:11:52;29.20;48.40
71672;DHT22;62112;45.638;11.714;2022-07-29T04:14:19;29.20;48.30
71672;DHT22;62112;45.638;11.714;2022-07-29T04:16:46;29.20;48.40
71672;DHT22;62112;45.638;11.714;2022-07-29T04:19:12;29.20;48.10
71672;DHT22;62112;45.638;11.714;2022-07-29T04:21:39;29.20;48.40
71672;DHT22;62112;45.638;11.714;2022-07-29T04:24:05;29.10;48.40
71672;DHT22;62112;45.638;11.714;2022-07-29T04:26:31;29.20;47.90
71672;DHT22;62112;45.638;11.714;2022-07-29T04:28:57;29.10;47.80
71672;DHT22;62112;45.638;11.714;2022-07-29T04:31:23;29.20;47.80
71672;DHT22;62112;45.638;11.714;2022-07-29T04:33:49;29.20;47.60
71672;DHT22;62112;45.638;11.714;2022-07-29T04:36:15;29.10;47.30
71672;DHT22;62112;45.638;11.714;2022-07-29T04:38:41;29.20;47.20
71672;DHT22;62112;45.638;11.714;2022-07-29T04:41:07;29.20;47.20
71672;DHT22;62112;45.638;11.714;2022-07-29T04:43:34;29.20;46.90
71672;DHT22;62112;45.638;11.714;2022-07-29T04:46:01;29.20;46.70
71672;DHT22;62112;45.638;11.714;2022-07-29T04:48:27;29.20;46.70
71672;DHT22;62112;45.638;11.714;2022-07-29T04:50:52;29.20;46.50
71672;DHT22;62112;45.638;11.714;2022-07-29T04:53:18;29.30;46.50
71672;DHT22;62112;45.638;11.714;2022-07-29T04:55:44;29.20;47.20
71672;DHT22;62112;45.638;11.714;2022-07-29T04:58:11;29.20;46.80
71672;DHT22;62112;45.638;11.714;2022-07-29T05:00:37;29.20;47.00
71672;DHT22;62112;45.638;11.714;2022-07-29T05:03:03;29.20;47.10
71672;DHT22;62112;45.638;11.714;2022-07-29T05:05:29;29.30;46.90
71672;DHT22;62112;45.638;11.714;2022-07-29T05:07:55;29.30;46.80
71672;DHT22;62112;45.638;11.714;2022-07-29T05:10:22;29.30;47.10
71672;DHT22;62112;45.638;11.714;2022-07-29T05:12:48;29.30;46.70
71672;DHT22;62112;45.638;11.714;2022-07-29T05:15:14;29.30;46.70
71672;DHT22;62112;45.638;11.714;2022-07-29T05:17:40;29.30;46.80
71672;DHT22;62112;45.638;11.714;2022-07-29T05:20:06;29.30;46.70
71672;DHT22;62112;45.638;11.714;2022-07-29T05:22:32;29.30;46.90
71672;DHT22;62112;45.638;11.714;2022-07-29T05:24:58;29.30;46.70
71672;DHT22;62112;45.638;11.714;2022-07-29T05:27:24;29.30;46.90
71672;DHT22;62112;45.638;11.714;2022-07-29T05:29:50;29.40;46.90
71672;DHT22;62112;45.638;11.714;2022-07-29T05:32:16;29.30;46.80
71672;DHT22;62112;45.638;11.714;2022-07-29T05:34:42;29.30;47.00
71672;DHT22;62112;45.638;11.714;2022-07-29T05:37:08;29.30;47.00
71672;DHT22;62112;45.638;11.714;2022-07-29T05:39:34;29.40;46.80
71672;DHT22;62112;45.638;11.714;2022-07-29T05:42:00;29.30;46.90
71672;DHT22;62112;45.638;11.714;2022-07-29T05:44:26;29.40;47.20
71672;DHT22;62112;45.638;11.714;2022-07-29T05:46:52;29.40;47.20
71672;DHT22;62112;45.638;11.714;2022-07-29T05:49:17;29.40;47.10
71672;DHT22;62112;45.638;11.714;2022-07-29T05:51:43;29.40;47.20
71672;DHT22;62112;45.638;11.714;2022-07-29T05:54:09;29.40;47.20
71672;DHT22;62112;45.638;11.714;2022-07-29T05:56:36;29.50;47.50
71672;DHT22;62112;45.638;11.714;2022-07-29T05:59:03;29.50;48.10
71672;DHT22;62112;45.638;11.714;2022-07-29T06:01:28;29.40;47.70
71672;DHT22;62112;45.638;11.714;2022-07-29T06:03:54;29.40;47.70
71672;DHT22;62112;45.638;11.714;2022-07-29T06:06:20;29.50;47.80
71672;DHT22;62112;45.638;11.714;2022-07-29T06:08:52;29.50;47.60
71672;DHT22;62112;45.638;11.714;2022-07-29T06:11:23;29.50;47.70
71672;DHT22;62112;45.638;11.714;2022-07-29T06:13:53;29.50;46.20
71672;DHT22;62112;45.638;11.714;2022-07-29T06:16:21;29.50;45.20
71672;DHT22;62112;45.638;11.714;2022-07-29T06:19:00;29.50;44.90
71672;DHT22;62112;45.638;11.714;2022-07-29T06:21:27;29.50;44.30
71672;DHT22;62112;45.638;11.714;2022-07-29T06:23:56;29.40;43.60
71672;DHT22;62112;45.638;11.714;2022-07-29T06:26:22;29.40;43.90
71672;DHT22;62112;45.638;11.714;2022-07-29T06:28:48;29.40;43.90
71672;DHT22;62112;45.638;11.714;2022-07-29T06:31:14;29.40;43.90
71672;DHT22;62112;45.638;11.714;2022-07-29T06:33:40;29.40;44.00
71672;DHT22;62112;45.638;11.714;2022-07-29T06:36:06;29.40;43.60
71672;DHT22;62112;45.638;11.714;2022-07-29T06:38:35;29.40;43.90
71672;DHT22;62112;45.638;11.714;2022-07-29T06:41:01;29.40;43.70
71672;DHT22;62112;45.638;11.714;2022-07-29T06:43:39;29.50;43.60
71672;DHT22;62112;45.638;11.714;2022-07-29T06:46:15;29.50;43.80
71672;DHT22;62112;45.638;11.714;2022-07-29T06:48:42;29.40;43.50
71672;DHT22;62112;45.638;11.714;2022-07-29T06:51:08;29.50;43.90
71672;DHT22;62112;45.638;11.714;2022-07-29T06:53:34;29.50;43.90
71672;DHT22;62112;45.638;11.714;2022-07-29T06:56:02;29.50;43.80
71672;DHT22;62112;45.638;11.714;2022-07-29T06:58:30;29.60;43.70
71672;DHT22;62112;45.638;11.714;2022-07-29T07:00:58;29.50;43.20
71672;DHT22;62112;45.638;11.714;2022-07-29T07:03:26;29.50;43.50
71672;DHT22;62112;45.638;11.714;2022-07-29T07:05:53;29.60;43.10
71672;DHT22;62112;45.638;11.714;2022-07-29T07:08:20;29.60;43.20
71672;DHT22;62112;45.638;11.714;2022-07-29T07:10:47;29.50;43.20
71672;DHT22;62112;45.638;11.714;2022-07-29T07:13:13;29.50;43.20
71672;DHT22;62112;45.638;11.714;2022-07-29T07:15:40;29.50;43.40
71672;DHT22;62112;45.638;11.714;2022-07-29T07:18:06;29.50;42.80
71672;DHT22;62112;45.638;11.714;2022-07-29T07:20:33;29.60;43.00
71672;DHT22;62112;45.638;11.714;2022-07-29T07:22:59;29.50;42.60
71672;DHT22;62112;45.638;11.714;2022-07-29T07:25:25;29.60;42.50
71672;DHT22;62112;45.638;11.714;2022-07-29T07:27:51;29.60;42.50
71672;DHT22;62112;45.638;11.714;2022-07-29T07:30:17;29.60;42.30
71672;DHT22;62112;45.638;11.714;2022-07-29T07:32:43;29.60;42.50
71672;DHT22;62112;45.638;11.714;2022-07-29T07:35:09;29.60;42.20
71672;DHT22;62112;45.638;11.714;2022-07-29T07:37:36;29.60;41.80
71672;DHT22;62112;45.638;11.714;2022-07-29T07:40:03;29.70;42.10
71672;DHT22;62112;45.638;11.714;2022-07-29T07:42:29;29.60;41.70
71672;DHT22;62112;45.638;11.714;2022-07-29T07:44:54;29.60;42.10
71672;DHT22;62112;45.638;11.714;2022-07-29T07:47:20;29.60;41.70
71672;DHT22;62112;45.638;11.714;2022-07-29T07:49:47;29.60;41.60
71672;DHT22;62112;45.638;11.714;2022-07-29T07:52:14;29.70;41.50
71672;DHT22;62112;45.638;11.714;2022-07-29T07:54:40;29.70;41.80
71672;DHT22;62112;45.638;11.714;2022-07-29T07:57:05;29.60;41.70
71672;DHT22;62112;45.638;11.714;2022-07-29T07:59:32;29.70;41.30
71672;DHT22;62112;45.638;11.714;2022-07-29T08:01:57;29.70;41.50
71672;DHT22;62112;45.638;11.714;2022-07-29T08:04:23;29.70;41.60
71672;DHT22;62112;45.638;11.714;2022-07-29T08:06:50;29.70;41.40
71672;DHT22;62112;45.638;11.714;2022-07-29T08:09:16;29.70;41.60
71672;DHT22;62112;45.638;11.714;2022-07-29T08:11:42;29.70;41.40
71672;DHT22;62112;45.638;11.714;2022-07-29T08:14:08;29.70;41.20
71672;DHT22;62112;45.638;11.714;2022-07-29T08:16:33;29.70;41.50
71672;DHT22;62112;45.638;11.714;2022-07-29T08:18:59;29.60;41.80
71672;DHT22;62112;45.638;11.714;2022-07-29T08:21:25;29.70;41.20
71672;DHT22;62112;45.638;11.714;2022-07-29T08:23:51;29.60;41.30
71672;DHT22;62112;45.638;11.714;2022-07-29T08:26:41;29.70;41.20
71672;DHT22;62112;45.638;11.714;2022-07-29T08:29:07;29.70;41.20
71672;DHT22;62112;45.638;11.714;2022-07-29T08:31:33;29.70;41.50
71672;DHT22;62112;45.638;11.714;2022-07-29T08:33:59;29.60;41.30
71672;DHT22;62112;45.638;11.714;2022-07-29T08:36:25;29.70;41.50
71672;DHT22;62112;45.638;11.714;2022-07-29T08:38:52;29.60;41.20
71672;DHT22;62112;45.638;11.714;2022-07-29T08:41:22;29.70;40.60
71672;DHT22;62112;45.638;11.714;2022-07-29T08:43:50;29.60;40.90
71672;DHT22;62112;45.638;11.714;2022-07-29T08:46:19;29.70;40.90
71672;DHT22;62112;45.638;11.714;2022-07-29T08:48:45;29.70;40.40
71672;DHT22;62112;45.638;11.714;2022-07-29T08:51:17;29.80;40.40
71672;DHT22;62112;45.638;11.714;2022-07-29T08:53:45;29.80;40.70
71672;DHT22;62112;45.638;11.714;2022-07-29T08:56:15;29.80;40.40
71672;DHT22;62112;45.638;11.714;2022-07-29T08:58:44;29.80;40.70
71672;DHT22;62112;45.638;11.714;2022-07-29T09:01:13;29.80;40.60
71672;DHT22;62112;45.638;11.714;2022-07-29T09:03:43;29.80;40.60
71672;DHT22;62112;45.638;11.714;2022-07-29T09:06:17;29.80;40.20
71672;DHT22;62112;45.638;11.714;2022-07-29T09:08:44;29.80;40.60
71672;DHT22;62112;45.638;11.714;2022-07-29T09:11:11;29.80;40.10
71672;DHT22;62112;45.638;11.714;2022-07-29T09:13:38;29.80;40.20
71672;DHT22;62112;45.638;11.714;2022-07-29T09:16:04;29.90;40.50
71672;DHT22;62112;45.638;11.714;2022-07-29T09:21:00;29.80;40.20
71672;DHT22;62112;45.638;11.714;2022-07-29T09:24:11;29.90;39.90
71672;DHT22;62112;45.638;11.714;2022-07-29T09:26:40;29.90;40.20
71672;DHT22;62112;45.638;11.714;2022-07-29T09:29:11;29.90;40.40
71672;DHT22;62112;45.638;11.714;2022-07-29T09:31:39;29.90;40.00
71672;DHT22;62112;45.638;11.714;2022-07-29T09:34:07;29.90;40.10
71672;DHT22;62112;45.638;11.714;2022-07-29T09:36:44;29.90;39.90
71672;DHT22;62112;45.638;11.714;2022-07-29T09:39:10;29.90;39.60
71672;DHT22;62112;45.638;11.714;2022-07-29T09:41:48;29.90;39.60
71672;DHT22;62112;45.638;11.714;2022-07-29T09:44:14;29.90;39.70
71672;DHT22;62112;45.638;11.714;2022-07-29T09:47:02;30.00;39.70
71672;DHT22;62112;45.638;11.714;2022-07-29T09:49:58;30.00;39.40
71672;DHT22;62112;45.638;11.714;2022-07-29T09:52:29;30.00;39.50
71672;DHT22;62112;45.638;11.714;2022-07-29T09:55:09;30.00;39.30
71672;DHT22;62112;45.638;11.714;2022-07-29T09:57:38;30.00;39.40
71672;DHT22;62112;45.638;11.714;2022-07-29T10:00:08;30.10;38.70
71672;DHT22;62112;45.638;11.714;2022-07-29T10:02:36;29.90;38.20
71672;DHT22;62112;45.638;11.714;2022-07-29T10:05:05;30.00;38.50
71672;DHT22;62112;45.638;11.714;2022-07-29T10:07:47;29.90;38.40
71672;DHT22;62112;45.638;11.714;2022-07-29T10:10:27;29.90;38.70
71672;DHT22;62112;45.638;11.714;2022-07-29T10:12:55;29.90;38.60
71672;DHT22;62112;45.638;11.714;2022-07-29T10:15:23;29.90;39.00
71672;DHT22;62112;45.638;11.714;2022-07-29T10:17:51;29.90;38.70
71672;DHT22;62112;45.638;11.714;2022-07-29T10:20:18;29.90;38.90
71672;DHT22;62112;45.638;11.714;2022-07-29T10:22:44;29.90;38.80
71672;DHT22;62112;45.638;11.714;2022-07-29T10:25:12;29.90;38.90
71672;DHT22;62112;45.638;11.714;2022-07-29T10:27:39;29.90;39.40
71672;DHT22;62112;45.638;11.714;2022-07-29T10:30:06;29.80;39.70
71672;DHT22;62112;45.638;11.714;2022-07-29T10:35:51;29.90;40.10
71672;DHT22;62112;45.638;11.714;2022-07-29T10:41:01;29.90;40.30
71672;DHT22;62112;45.638;11.714;2022-07-29T10:43:51;29.80;40.50
71672;DHT22;62112;45.638;11.714;2022-07-29T10:46:17;29.90;40.30
71672;DHT22;62112;45.638;11.714;2022-07-29T10:49:09;29.90;40.20
71672;DHT22;62112;45.638;11.714;2022-07-29T10:54:41;29.80;39.80
71672;DHT22;62112;45.638;11.714;2022-07-29T10:57:19;29.80;39.10
71672;DHT22;62112;45.638;11.714;2022-07-29T11:02:41;29.80;39.10
71672;DHT22;62112;45.638;11.714;2022-07-29T11:05:15;29.80;38.70
71672;DHT22;62112;45.638;11.714;2022-07-29T11:08:18;29.70;38.40
71672;DHT22;62112;45.638;11.714;2022-07-29T11:10:46;29.70;38.60
71672;DHT22;62112;45.638;11.714;2022-07-29T11:13:12;29.70;38.40
71672;DHT22;62112;45.638;11.714;2022-07-29T11:15:54;29.70;38.20
71672;DHT22;62112;45.638;11.714;2022-07-29T11:18:20;29.80;38.20
71672;DHT22;62112;45.638;11.714;2022-07-29T11:20:48;29.80;37.70
71672;DHT22;62112;45.638;11.714;2022-07-29T11:31:11;30.00;36.30
71672;DHT22;62112;45.638;11.714;2022-07-29T11:33:37;30.20;36.40
71672;DHT22;62112;45.638;11.714;2022-07-29T11:38:36;30.30;36.10
71672;DHT22;62112;45.638;11.714;2022-07-29T11:43:57;30.40;35.50
71672;DHT22;62112;45.638;11.714;2022-07-29T11:46:46;30.40;35.50
71672;DHT22;62112;45.638;11.714;2022-07-29T11:49:13;30.50;35.20
71672;DHT22;62112;45.638;11.714;2022-07-29T11:51:52;30.60;34.80
71672;DHT22;62112;45.638;11.714;2022-07-29T11:54:31;30.60;35.10
71672;DHT22;62112;45.638;11.714;2022-07-29T11:57:03;30.60;34.40
71672;DHT22;62112;45.638;11.714;2022-07-29T11:59:50;30.60;34.70
71672;DHT22;62112;45.638;11.714;2022-07-29T12:02:21;30.80;34.30
71672;DHT22;62112;45.638;11.714;2022-07-29T12:04:52;30.70;34.60
71672;DHT22;62112;45.638;11.714;2022-07-29T12:07:27;30.70;34.00
71672;DHT22;62112;45.638;11.714;2022-07-29T12:09:55;30.80;33.80
71672;DHT22;62112;45.638;11.714;2022-07-29T12:12:25;30.90;33.50
71672;DHT22;62112;45.638;11.714;2022-07-29T12:15:09;31.00;33.60
71672;DHT22;62112;45.638;11.714;2022-07-29T12:17:43;30.90;33.40
71672;DHT22;62112;45.638;11.714;2022-07-29T12:20:09;31.00;33.40
71672;DHT22;62112;45.638;11.714;2022-07-29T12:22:39;31.00;33.30
71672;DHT22;62112;45.638;11.714;2022-07-29T12:25:09;31.00;33.10
71672;DHT22;62112;45.638;11.714;2022-07-29T12:27:35;31.10;32.80
71672;DHT22;62112;45.638;11.714;2022-07-29T12:30:07;31.10;33.00
71672;DHT22;62112;45.638;11.714;2022-07-29T12:35:12;31.00;32.70
71672;DHT22;62112;45.638;11.714;2022-07-29T12:37:40;31.00;32.20
71672;DHT22;62112;45.638;11.714;2022-07-29T12:40:09;31.00;32.10
71672;DHT22;62112;45.638;11.714;2022-07-29T12:42:40;31.00;32.80
71672;DHT22;62112;45.638;11.714;2022-07-29T12:45:10;31.10;32.40
71672;DHT22;62112;45.638;11.714;2022-07-29T12:47:54;31.00;32.20
71672;DHT22;62112;45.638;11.714;2022-07-29T12:50:22;31.10;32.30
71672;DHT22;62112;45.638;11.714;2022-07-29T12:52:51;31.10;32.20
71672;DHT22;62112;45.638;11.714;2022-07-29T12:55:45;31.10;32.30
71672;DHT22;62112;45.638;11.714;2022-07-29T12:58:38;31.10;32.20
71672;DHT22;62112;45.638;11.714;2022-07-29T13:01:09;31.10;32.40
71672;DHT22;62112;45.638;11.714;2022-07-29T13:03:58;31.00;31.70
71672;DHT22;62112;45.638;11.714;2022-07-29T13:09:05;31.20;31.40
71672;DHT22;62112;45.638;11.714;2022-07-29T13:11:44;31.10;31.50
71672;DHT22;62112;45.638;11.714;2022-07-29T13:14:13;31.10;31.50
71672;DHT22;62112;45.638;11.714;2022-07-29T13:17:14;31.10;31.70
71672;DHT22;62112;45.638;11.714;2022-07-29T13:19:52;31.10;31.60
71672;DHT22;62112;45.638;11.714;2022-07-29T13:22:22;31.10;31.50
71672;DHT22;62112;45.638;11.714;2022-07-29T13:24:59;31.10;31.20
71672;DHT22;62112;45.638;11.714;2022-07-29T13:27:29;31.10;31.30
71672;DHT22;62112;45.638;11.714;2022-07-29T13:30:03;31.00;31.10
71672;DHT22;62112;45.638;11.714;2022-07-29T13:32:31;31.00;31.30
71672;DHT22;62112;45.638;11.714;2022-07-29T13:34:59;31.00;31.30
71672;DHT22;62112;45.638;11.714;2022-07-29T13:37:26;30.90;31.40
71672;DHT22;62112;45.638;11.714;2022-07-29T13:39:55;30.80;31.20
71672;DHT22;62112;45.638;11.714;2022-07-29T13:42:24;30.80;31.30
71672;DHT22;62112;45.638;11.714;2022-07-29T13:44:51;30.60;31.30
71672;DHT22;62112;45.638;11.714;2022-07-29T13:47:18;30.60;31.20
71672;DHT22;62112;45.638;11.714;2022-07-29T13:49:44;30.50;31.60
71672;DHT22;62112;45.638;11.714;2022-07-29T13:52:11;30.50;31.40
71672;DHT22;62112;45.638;11.714;2022-07-29T13:54:38;30.40;31.50
71672;DHT22;62112;45.638;11.714;2022-07-29T13:57:04;30.40;31.40
71672;DHT22;62112;45.638;11.714;2022-07-29T13:59:31;30.30;31.30
71672;DHT22;62112;45.638;11.714;2022-07-29T14:01:57;30.30;31.60
71672;DHT22;62112;45.638;11.714;2022-07-29T14:04:23;30.30;31.60
71672;DHT22;62112;45.638;11.714;2022-07-29T14:06:49;30.20;31.60
71672;DHT22;62112;45.638;11.714;2022-07-29T14:09:15;30.10;32.10
71672;DHT22;62112;45.638;11.714;2022-07-29T14:11:41;30.10;31.60
71672;DHT22;62112;45.638;11.714;2022-07-29T14:14:07;30.10;31.90
71672;DHT22;62112;45.638;11.714;2022-07-29T14:16:33;30.10;31.80
71672;DHT22;62112;45.638;11.714;2022-07-29T14:18:59;30.10;32.00
71672;DHT22;62112;45.638;11.714;2022-07-29T14:21:25;30.00;32.40
71672;DHT22;62112;45.638;11.714;2022-07-29T14:23:52;30.00;31.90
71672;DHT22;62112;45.638;11.714;2022-07-29T14:26:20;30.00;31.90
71672;DHT22;62112;45.638;11.714;2022-07-29T14:28:46;29.90;32.00
71672;DHT22;62112;45.638;11.714;2022-07-29T14:31:12;29.90;32.20
71672;DHT22;62112;45.638;11.714;2022-07-29T14:33:38;29.90;32.10
71672;DHT22;62112;45.638;11.714;2022-07-29T14:36:04;29.90;32.20
71672;DHT22;62112;45.638;11.714;2022-07-29T14:38:29;29.90;32.10
71672;DHT22;62112;45.638;11.714;2022-07-29T14:40:55;29.80;32.20
71672;DHT22;62112;45.638;11.714;2022-07-29T14:43:21;29.80;32.10
71672;DHT22;62112;45.638;11.714;2022-07-29T14:45:47;29.80;32.40
71672;DHT22;62112;45.638;11.714;2022-07-29T14:48:13;29.70;32.30
71672;DHT22;62112;45.638;11.714;2022-07-29T14:50:39;29.60;32.10
71672;DHT22;62112;45.638;11.714;2022-07-29T14:53:05;29.70;32.30
71672;DHT22;62112;45.638;11.714;2022-07-29T14:55:31;29.70;32.50
71672;DHT22;62112;45.638;11.714;2022-07-29T14:57:56;29.60;32.80
71672;DHT22;62112;45.638;11.714;2022-07-29T15:00:24;29.70;32.60
71672;DHT22;62112;45.638;11.714;2022-07-29T15:02:50;29.60;32.60
71672;DHT22;62112;45.638;11.714;2022-07-29T15:05:16;29.70;32.40
71672;DHT22;62112;45.638;11.714;2022-07-29T15:07:42;29.50;32.40
71672;DHT22;62112;45.638;11.714;2022-07-29T15:10:08;29.50;32.80
71672;DHT22;62112;45.638;11.714;2022-07-29T15:12:34;29.50;32.80
71672;DHT22;62112;45.638;11.714;2022-07-29T15:15:00;29.50;32.60
71672;DHT22;62112;45.638;11.714;2022-07-29T15:17:26;29.50;32.50
71672;DHT22;62112;45.638;11.714;2022-07-29T15:19:52;29.50;32.30
71672;DHT22;62112;45.638;11.714;2022-07-29T15:22:18;29.50;32.50
71672;DHT22;62112;45.638;11.714;2022-07-29T15:24:44;29.50;33.30
71672;DHT22;62112;45.638;11.714;2022-07-29T15:27:10;29.50;33.70
71672;DHT22;62112;45.638;11.714;2022-07-29T15:29:42;29.50;34.00
71672;DHT22;62112;45.638;11.714;2022-07-29T15:32:08;29.50;34.50
71672;DHT22;62112;45.638;11.714;2022-07-29T15:34:35;29.50;34.90
71672;DHT22;62112;45.638;11.714;2022-07-29T15:37:00;29.60;35.50
71672;DHT22;62112;45.638;11.714;2022-07-29T15:39:26;29.60;35.40
71672;DHT22;62112;45.638;11.714;2022-07-29T15:41:52;29.50;35.60
71672;DHT22;62112;45.638;11.714;2022-07-29T15:44:18;29.60;36.10
71672;DHT22;62112;45.638;11.714;2022-07-29T15:46:44;29.60;35.90
71672;DHT22;62112;45.638;11.714;2022-07-29T15:49:33;29.60;36.00
71672;DHT22;62112;45.638;11.714;2022-07-29T15:52:02;29.60;35.80
71672;DHT22;62112;45.638;11.714;2022-07-29T15:54:28;29.50;36.40
71672;DHT22;62112;45.638;11.714;2022-07-29T15:56:54;29.60;36.40
71672;DHT22;62112;45.638;11.714;2022-07-29T15:59:21;29.60;36.30
71672;DHT22;62112;45.638;11.714;2022-07-29T16:01:47;29.60;35.90
71672;DHT22;62112;45.638;11.714;2022-07-29T16:04:13;29.60;36.50
71672;DHT22;62112;45.638;11.714;2022-07-29T16:06:39;29.70;36.30
71672;DHT22;62112;45.638;11.714;2022-07-29T16:09:05;29.50;36.70
71672;DHT22;62112;45.638;11.714;2022-07-29T16:11:31;29.60;36.70
71672;DHT22;62112;45.638;11.714;2022-07-29T16:13:58;29.70;36.80